createdAt,value
2022-11-07T00:00:57.711Z,10.40
2022-11-07T00:03:27.462Z,10.40
2022-11-07T00:06:01.834Z,10.40
2022-11-07T00:08:47.332Z,10.40
2022-11-07T00:11:20.696Z,10.40
2022-11-07T00:13:53.720Z,10.40
2022-11-07T00:16:20.869Z,10.40
2022-11-07T00:18:47.656Z,10.40
2022-11-07T00:21:20.787Z,10.40
2022-11-07T00:23:47.755Z,10.40
2022-11-07T00:26:15.280Z,10.40
2022-11-07T00:28:49.697Z,10.40
2022-11-07T00:31:17.436Z,10.40
2022-11-07T00:33:51.714Z,10.50
2022-11-07T00:36:21.091Z,10.50
2022-11-07T00:38:47.989Z,10.50
2022-11-07T00:41:21.742Z,10.40
2022-11-07T00:43:48.584Z,10.40
2022-11-07T00:46:16.515Z,10.40
2022-11-07T00:48:50.748Z,10.40
2022-11-07T00:51:20.139Z,10.30
2022-11-07T00:53:53.742Z,10.30
2022-11-07T00:56:30.768Z,10.30
2022-11-07T00:58:59.317Z,10.30
2022-11-07T01:01:29.242Z,10.30
2022-11-07T01:04:21.786Z,10.40
2022-11-07T01:06:48.771Z,10.40
2022-11-07T01:09:20.071Z,10.30
2022-11-07T01:11:54.926Z,10.30
2022-11-07T01:14:23.109Z,10.30
2022-11-07T01:16:50.281Z,10.20
2022-11-07T01:19:23.780Z,10.30
2022-11-07T01:21:57.798Z,10.30
2022-11-07T01:24:30.915Z,10.30
2022-11-07T01:26:57.666Z,10.30
2022-11-07T01:29:24.919Z,10.40
2022-11-07T01:31:57.925Z,10.40
2022-11-07T01:34:24.843Z,10.40
2022-11-07T01:36:51.717Z,10.50
2022-11-07T01:39:24.888Z,10.50
2022-11-07T01:41:51.644Z,10.50
2022-11-07T01:44:18.375Z,10.50
2022-11-07T01:46:52.860Z,10.50
2022-11-07T01:49:19.574Z,10.50
2022-11-07T01:52:05.952Z,10.50
2022-11-07T01:54:45.718Z,10.50
2022-11-07T01:57:25.857Z,10.60
2022-11-07T01:59:56.488Z,10.50
2022-11-07T02:02:32.988Z,10.50
2022-11-07T02:05:02.685Z,10.60
2022-11-07T02:07:36.976Z,10.50
2022-11-07T02:10:04.288Z,10.50
2022-11-07T02:12:31.311Z,10.40
2022-11-07T02:15:04.901Z,10.40
2022-11-07T02:17:38.034Z,10.40
2022-11-07T02:20:05.268Z,10.40
2022-11-07T02:22:50.863Z,10.30
2022-11-07T02:25:25.875Z,10.30
2022-11-07T02:27:58.184Z,10.30
2022-11-07T02:30:40.900Z,10.20
2022-11-07T02:33:22.574Z,10.20
2022-11-07T02:35:57.954Z,10.20
2022-11-07T02:38:40.100Z,10.20
2022-11-07T02:41:29.015Z,10.20
2022-11-07T02:44:07.043Z,10.20
2022-11-07T02:46:34.032Z,10.20
2022-11-07T02:49:02.019Z,10.30
2022-11-07T02:51:35.972Z,10.30
2022-11-07T02:54:08.958Z,10.30
2022-11-07T02:56:35.698Z,10.20
2022-11-07T02:59:09.094Z,10.20
2022-11-07T03:01:35.907Z,10.20
2022-11-07T03:04:02.770Z,10.20
2022-11-07T03:06:36.071Z,10.20
2022-11-07T03:09:03.084Z,10.20
2022-11-07T03:11:29.926Z,10.20
2022-11-07T03:14:04.061Z,10.30
2022-11-07T03:16:31.236Z,10.30
2022-11-07T03:18:58.028Z,10.40
2022-11-07T03:21:37.975Z,10.40
2022-11-07T03:24:12.025Z,10.40
2022-11-07T03:26:38.812Z,10.40
2022-11-07T03:29:06.165Z,10.40
2022-11-07T03:31:39.074Z,10.40
2022-11-07T03:34:05.891Z,10.40
2022-11-07T03:36:34.065Z,10.40
2022-11-07T03:39:08.024Z,10.30
2022-11-07T03:41:41.125Z,10.30
2022-11-07T03:44:08.100Z,10.30
2022-11-07T03:46:34.850Z,10.30
2022-11-07T03:49:08.146Z,10.30
2022-11-07T03:51:34.874Z,10.20
2022-11-07T03:54:01.865Z,10.20
2022-11-07T03:56:35.055Z,10.30
2022-11-07T03:59:02.460Z,10.20
2022-11-07T04:01:29.314Z,10.30
2022-11-07T04:04:03.019Z,10.30
2022-11-07T04:06:36.051Z,10.30
2022-11-07T04:09:03.507Z,10.40
2022-11-07T04:11:55.107Z,10.40
2022-11-07T04:14:40.688Z,10.40
2022-11-07T04:17:26.070Z,10.40
2022-11-07T04:20:02.101Z,10.40
2022-11-07T04:22:38.063Z,10.40
2022-11-07T04:25:05.715Z,10.40
2022-11-07T04:27:51.082Z,10.40
2022-11-07T04:30:19.444Z,10.40
2022-11-07T04:33:04.079Z,10.50
2022-11-07T04:35:32.514Z,10.50
2022-11-07T04:38:07.360Z,10.50
2022-11-07T04:40:34.124Z,10.50
2022-11-07T04:43:01.015Z,10.50
2022-11-07T04:45:34.141Z,10.40
2022-11-07T04:48:00.963Z,10.50
2022-11-07T04:50:34.119Z,10.50
2022-11-07T04:53:07.208Z,10.40
2022-11-07T04:55:34.000Z,10.50
2022-11-07T04:58:00.897Z,10.50
2022-11-07T05:00:34.360Z,10.50
2022-11-07T05:03:01.515Z,10.50
2022-11-07T05:05:28.371Z,10.50
2022-11-07T05:08:02.147Z,10.50
2022-11-07T05:10:29.378Z,10.50
2022-11-07T05:13:03.243Z,10.60
2022-11-07T05:15:30.038Z,10.60
2022-11-07T05:17:57.102Z,10.60
2022-11-07T05:20:41.173Z,10.60
2022-11-07T05:23:13.244Z,10.60
2022-11-07T05:25:56.159Z,10.70
2022-11-07T05:28:33.532Z,10.60
2022-11-07T05:31:09.217Z,10.60
2022-11-07T05:33:36.401Z,10.70
2022-11-07T05:36:25.353Z,10.70
2022-11-07T05:38:53.673Z,10.70
2022-11-07T05:41:21.607Z,10.70
2022-11-07T05:43:55.215Z,10.70
2022-11-07T05:46:22.116Z,10.70
2022-11-07T05:48:50.645Z,10.70
2022-11-07T05:51:24.223Z,10.70
2022-11-07T05:53:58.342Z,10.70
2022-11-07T05:56:25.100Z,10.70
2022-11-07T05:58:51.818Z,10.80
2022-11-07T06:01:25.372Z,10.80
2022-11-07T06:03:52.241Z,10.80
2022-11-07T06:06:18.948Z,10.80
2022-11-07T06:08:52.347Z,10.90
2022-11-07T06:11:19.124Z,10.90
2022-11-07T06:13:45.954Z,10.90
2022-11-07T06:16:19.361Z,10.90
2022-11-07T06:18:46.399Z,10.90
2022-11-07T06:21:14.017Z,10.90
2022-11-07T06:23:47.283Z,10.90
2022-11-07T06:26:14.149Z,10.90
2022-11-07T06:28:40.921Z,10.90
2022-11-07T06:31:14.296Z,11.00
2022-11-07T06:33:41.047Z,11.00
2022-11-07T06:36:17.335Z,11.00
2022-11-07T06:38:44.094Z,11.00
2022-11-07T06:41:13.268Z,11.10
2022-11-07T06:43:47.391Z,11.10
2022-11-07T06:46:14.446Z,11.10
2022-11-07T06:48:41.232Z,11.10
2022-11-07T06:51:58.815Z,11.10
2022-11-07T06:54:26.133Z,11.20
2022-11-07T06:56:59.316Z,11.10
2022-11-07T06:59:26.174Z,11.20
2022-11-07T07:01:53.041Z,11.20
2022-11-07T07:04:26.389Z,11.20
2022-11-07T07:06:59.452Z,11.20
2022-11-07T07:09:26.353Z,11.20
2022-11-07T07:11:53.317Z,11.20
2022-11-07T07:14:26.375Z,11.20
2022-11-07T07:16:59.417Z,11.30
2022-11-07T07:19:26.179Z,11.30
2022-11-07T07:21:52.932Z,11.30
2022-11-07T07:24:26.457Z,11.40
2022-11-07T07:26:53.219Z,11.40
2022-11-07T07:29:20.062Z,11.40
2022-11-07T07:31:53.460Z,11.40
2022-11-07T07:34:20.335Z,11.50
2022-11-07T07:36:53.471Z,11.50
2022-11-07T07:39:20.300Z,11.60
2022-11-07T07:41:49.287Z,11.60
2022-11-07T07:44:23.512Z,11.60
2022-11-07T07:46:57.403Z,11.60
2022-11-07T07:49:24.244Z,11.60
2022-11-07T07:52:16.517Z,11.70
2022-11-07T07:54:43.526Z,11.70
2022-11-07T07:57:10.304Z,11.70
2022-11-07T07:59:43.446Z,11.80
2022-11-07T08:02:18.546Z,11.80
2022-11-07T08:04:45.422Z,11.80
2022-11-07T08:07:19.482Z,11.80
2022-11-07T08:09:46.269Z,11.90
2022-11-07T08:12:19.468Z,12.00
2022-11-07T08:14:46.280Z,12.10
2022-11-07T08:17:20.461Z,12.20
2022-11-07T08:19:47.221Z,12.20
2022-11-07T08:22:14.571Z,12.30
2022-11-07T08:24:49.464Z,12.40
2022-11-07T08:27:16.309Z,12.40
2022-11-07T08:29:49.515Z,12.40
2022-11-07T08:32:16.369Z,12.40
2022-11-07T08:34:49.458Z,12.40
2022-11-07T08:37:16.315Z,12.40
2022-11-07T08:39:49.477Z,12.40
2022-11-07T08:42:16.452Z,12.40
2022-11-07T08:44:49.544Z,12.40
2022-11-07T08:47:16.332Z,12.40
2022-11-07T08:49:43.127Z,12.50
2022-11-07T08:52:16.488Z,12.50
2022-11-07T08:54:49.517Z,12.50
2022-11-07T08:57:16.290Z,12.50
2022-11-07T08:59:43.126Z,12.50
2022-11-07T09:05:07.829Z,12.60
2022-11-07T09:07:45.534Z,12.60
2022-11-07T09:10:12.406Z,12.60
2022-11-07T09:12:56.621Z,12.60
2022-11-07T09:15:23.433Z,12.60
2022-11-07T09:17:57.653Z,12.60
2022-11-07T09:20:24.482Z,12.70
2022-11-07T09:22:56.722Z,12.70
2022-11-07T09:25:30.578Z,12.70
2022-11-07T09:28:09.647Z,12.80
2022-11-07T09:30:36.792Z,12.90
2022-11-07T09:33:04.148Z,12.90
2022-11-07T09:35:37.595Z,12.90
2022-11-07T09:38:04.537Z,12.80
2022-11-07T09:40:58.588Z,12.90
2022-11-07T09:43:34.432Z,12.80
2022-11-07T09:46:35.679Z,12.90
2022-11-07T09:49:23.994Z,12.90
2022-11-07T09:52:05.646Z,12.90
2022-11-07T09:54:38.740Z,12.90
2022-11-07T09:57:14.405Z,12.90
2022-11-07T09:59:49.160Z,13.00
2022-11-07T10:02:25.828Z,13.00
2022-11-07T10:04:59.497Z,13.00
2022-11-07T10:07:44.829Z,13.00
2022-11-07T10:10:32.940Z,13.00
2022-11-07T10:13:39.621Z,13.00
2022-11-07T10:16:15.627Z,13.10
2022-11-07T10:18:57.624Z,13.10
2022-11-07T10:21:42.205Z,13.20
2022-11-07T10:24:43.678Z,13.20
2022-11-07T10:27:12.105Z,13.10
2022-11-07T10:29:54.700Z,13.20
2022-11-07T10:32:30.686Z,13.20
2022-11-07T10:35:26.193Z,13.20
2022-11-07T10:38:08.712Z,13.20
2022-11-07T10:40:38.412Z,13.20
2022-11-07T10:43:18.124Z,13.30
2022-11-07T10:45:45.350Z,13.40
2022-11-07T10:48:20.745Z,13.50
2022-11-07T10:50:54.572Z,13.60
2022-11-07T10:53:31.724Z,13.70
2022-11-07T10:55:58.767Z,13.70
2022-11-07T10:58:40.859Z,13.80
2022-11-07T11:01:09.718Z,13.80
2022-11-07T11:03:52.822Z,13.80
2022-11-07T11:06:21.615Z,13.80
2022-11-07T11:08:50.662Z,13.80
2022-11-07T11:11:41.878Z,13.70
2022-11-07T11:14:16.794Z,13.70
2022-11-07T11:16:50.836Z,13.60
2022-11-07T11:19:26.935Z,13.50
2022-11-07T11:22:09.420Z,13.50
2022-11-07T11:24:46.714Z,13.50
2022-11-07T11:27:17.950Z,13.50
2022-11-07T11:30:02.807Z,13.50
2022-11-07T11:32:38.425Z,13.50
2022-11-07T11:35:21.788Z,13.50
2022-11-07T11:37:58.785Z,13.50
2022-11-07T11:40:31.759Z,13.50
2022-11-07T11:43:05.073Z,13.60
2022-11-07T11:45:42.741Z,13.60
2022-11-07T11:48:28.790Z,13.60
2022-11-07T11:51:03.980Z,13.60
2022-11-07T11:53:37.798Z,13.60
2022-11-07T11:56:07.814Z,13.70
2022-11-07T11:59:11.791Z,13.70
2022-11-07T12:01:44.756Z,13.70
2022-11-07T12:04:51.845Z,13.70
2022-11-07T12:07:28.792Z,13.70
2022-11-07T12:10:11.154Z,13.70
2022-11-07T12:13:09.782Z,13.60
2022-11-07T12:15:44.161Z,13.60
2022-11-07T12:18:30.780Z,13.60
2022-11-07T12:21:27.225Z,13.60
2022-11-07T12:24:25.808Z,13.70
2022-11-07T12:27:26.543Z,13.80
2022-11-07T12:30:16.820Z,13.80
2022-11-07T12:33:05.494Z,13.90
2022-11-07T12:36:00.849Z,13.90
2022-11-07T12:38:54.959Z,13.90
2022-11-07T12:41:31.898Z,14.00
2022-11-07T12:44:26.955Z,14.00
2022-11-07T12:47:11.878Z,14.00
2022-11-07T12:49:51.202Z,14.00
2022-11-07T12:52:26.929Z,14.00
2022-11-07T12:55:19.531Z,14.00
2022-11-07T12:57:55.825Z,14.00
2022-11-07T13:00:29.623Z,13.90
2022-11-07T13:03:09.872Z,13.90
2022-11-07T13:05:43.570Z,13.90
2022-11-07T13:08:41.898Z,13.80
2022-11-07T13:11:27.350Z,13.80
2022-11-07T13:14:31.922Z,13.70
2022-11-07T13:17:01.591Z,13.60
2022-11-07T13:19:36.988Z,13.60
2022-11-07T13:22:28.635Z,13.60
2022-11-07T13:25:23.113Z,13.60
2022-11-07T13:27:56.103Z,13.50
2022-11-07T13:30:37.919Z,13.50
2022-11-07T13:33:06.222Z,13.50
2022-11-07T13:35:35.764Z,13.50
2022-11-07T13:38:17.933Z,13.60
2022-11-07T13:41:09.965Z,13.60
2022-11-07T13:44:06.044Z,13.60
2022-11-07T13:46:51.992Z,13.60
2022-11-07T13:49:26.812Z,13.60
2022-11-07T13:52:02.987Z,13.70
2022-11-07T13:54:32.592Z,13.70
2022-11-07T13:57:14.980Z,13.70
2022-11-07T13:59:52.226Z,13.70
2022-11-07T14:02:44.124Z,13.80
2022-11-07T14:05:16.772Z,13.80
2022-11-07T14:07:55.957Z,13.90
2022-11-07T14:10:42.635Z,14.00
2022-11-07T14:13:19.398Z,14.10
2022-11-07T14:15:59.386Z,14.10
2022-11-07T14:18:36.092Z,14.20
2022-11-07T14:21:02.930Z,14.20
2022-11-07T14:23:34.750Z,14.20
2022-11-07T14:26:12.085Z,14.20
2022-11-07T14:28:39.846Z,14.10
2022-11-07T14:31:22.106Z,14.10
2022-11-07T14:33:54.847Z,14.00
2022-11-07T14:36:29.130Z,14.00
2022-11-07T14:39:12.743Z,13.90
2022-11-07T14:41:50.298Z,13.90
2022-11-07T14:44:28.423Z,13.80
2022-11-07T14:47:10.034Z,13.80
2022-11-07T14:49:45.170Z,13.80
2022-11-07T14:52:22.900Z,13.70
2022-11-07T14:55:03.137Z,13.60
2022-11-07T14:57:32.388Z,13.60
2022-11-07T14:59:59.131Z,13.60
2022-11-07T15:02:38.203Z,13.60
2022-11-07T15:05:11.016Z,13.60
2022-11-07T15:07:54.412Z,13.50
2022-11-07T15:10:26.067Z,13.50
2022-11-07T15:13:05.165Z,13.40
2022-11-07T15:15:34.651Z,13.40
2022-11-07T15:18:04.513Z,13.40
2022-11-07T15:20:38.180Z,13.40
2022-11-07T15:23:34.862Z,13.30
2022-11-07T15:26:14.092Z,13.30
2022-11-07T15:28:53.130Z,13.30
2022-11-07T15:31:29.660Z,13.20
2022-11-07T15:34:05.104Z,13.20
2022-11-07T15:36:31.878Z,13.10
2022-11-07T15:39:07.310Z,13.10
2022-11-07T15:41:34.081Z,13.10
2022-11-07T15:44:00.908Z,13.00
2022-11-07T15:46:44.100Z,13.00
2022-11-07T15:49:12.157Z,13.00
2022-11-07T15:51:39.962Z,13.00
2022-11-07T15:54:18.133Z,12.90
2022-11-07T15:56:46.616Z,12.90
2022-11-07T15:59:26.110Z,12.90
2022-11-07T16:01:53.215Z,12.90
2022-11-07T16:04:20.139Z,12.80
2022-11-07T16:06:54.289Z,12.80
2022-11-07T16:09:22.309Z,12.80
2022-11-07T16:11:49.340Z,12.80
2022-11-07T16:17:15.022Z,12.80
2022-11-07T16:19:48.203Z,12.80
2022-11-07T16:22:16.309Z,12.80
2022-11-07T16:24:50.248Z,12.80
2022-11-07T16:27:25.349Z,12.80
2022-11-07T16:29:52.744Z,12.80
2022-11-07T16:32:19.458Z,12.80
2022-11-07T16:34:53.292Z,12.80
2022-11-07T16:37:20.121Z,12.90
2022-11-07T16:39:46.897Z,12.90
2022-11-07T16:42:24.206Z,12.90
2022-11-07T16:44:57.287Z,12.90
2022-11-07T16:47:24.666Z,13.00
2022-11-07T16:49:55.998Z,13.00
2022-11-07T16:52:32.336Z,13.00
2022-11-07T16:54:59.479Z,13.00
2022-11-07T16:57:26.674Z,13.10
2022-11-07T17:00:00.238Z,13.10
2022-11-07T17:02:27.424Z,13.10
2022-11-07T17:04:54.785Z,13.10
2022-11-07T17:07:30.353Z,13.10
2022-11-07T17:09:57.155Z,13.10
2022-11-07T17:12:24.151Z,13.20
2022-11-07T17:14:58.233Z,13.20
2022-11-07T17:17:25.092Z,13.20
2022-11-07T17:19:58.298Z,13.20
2022-11-07T17:22:26.179Z,13.20
2022-11-07T17:24:59.251Z,13.20
2022-11-07T17:27:26.636Z,13.20
2022-11-07T17:30:02.195Z,13.20
2022-11-07T17:32:34.484Z,13.20
2022-11-07T17:35:31.109Z,13.20
2022-11-07T17:37:55.021Z,13.20
2022-11-07T17:40:36.269Z,13.30
2022-11-07T17:43:03.187Z,13.30
2022-11-07T17:45:36.287Z,13.30
2022-11-07T17:48:09.303Z,13.30
2022-11-07T17:50:43.300Z,13.30
2022-11-07T17:53:16.319Z,13.30
2022-11-07T17:55:49.293Z,13.30
2022-11-07T17:58:22.320Z,13.30
2022-11-07T18:00:55.297Z,13.30
2022-11-07T18:03:22.117Z,13.30
2022-11-07T18:05:56.342Z,13.30
2022-11-07T18:08:38.429Z,13.40
2022-11-07T18:11:18.350Z,13.30
2022-11-07T18:13:45.301Z,13.30
2022-11-07T18:16:23.378Z,13.40
2022-11-07T18:18:50.425Z,13.40
2022-11-07T18:21:24.565Z,13.30
2022-11-07T18:23:51.605Z,13.30
2022-11-07T18:26:37.498Z,13.30
2022-11-07T18:29:11.080Z,13.20
2022-11-07T18:31:47.440Z,13.20
2022-11-07T18:34:21.396Z,13.30
2022-11-07T18:36:55.363Z,13.30
2022-11-07T18:39:22.849Z,13.20
2022-11-07T18:41:58.408Z,13.20
2022-11-07T18:44:25.339Z,13.10
2022-11-07T18:46:52.248Z,13.00
2022-11-07T18:49:26.381Z,12.90
2022-11-07T18:51:53.245Z,12.90
2022-11-07T18:54:22.043Z,12.90
2022-11-07T18:56:55.432Z,12.90
2022-11-07T18:59:22.692Z,12.90
2022-11-07T19:01:56.497Z,12.90
2022-11-07T19:04:23.454Z,12.80
2022-11-07T19:07:03.642Z,12.80
2022-11-07T19:09:32.578Z,12.80
2022-11-07T19:12:00.732Z,12.90
2022-11-07T19:14:37.423Z,12.80
2022-11-07T19:17:11.429Z,12.80
2022-11-07T19:19:45.449Z,12.80
2022-11-07T19:22:13.719Z,12.80
2022-11-07T19:24:47.478Z,12.80
2022-11-07T19:27:20.447Z,12.80
2022-11-07T19:29:47.271Z,12.80
2022-11-07T19:32:20.457Z,12.80
2022-11-07T19:34:47.213Z,12.80
2022-11-07T19:37:20.514Z,12.80
2022-11-07T19:39:47.353Z,12.80
2022-11-07T19:42:20.475Z,12.80
2022-11-07T19:44:56.563Z,12.80
2022-11-07T19:47:30.521Z,12.70
2022-11-07T19:50:04.481Z,12.70
2022-11-07T19:52:31.242Z,12.70
2022-11-07T19:55:04.476Z,12.70
2022-11-07T19:57:31.788Z,12.70
2022-11-07T20:00:05.496Z,12.70
2022-11-07T20:02:44.565Z,12.70
2022-11-07T20:05:11.890Z,12.70
2022-11-07T20:07:49.062Z,12.60
2022-11-07T20:10:18.713Z,12.60
2022-11-07T20:12:52.524Z,12.60
2022-11-07T20:15:19.350Z,12.60
2022-11-07T20:17:46.410Z,12.70
2022-11-07T20:20:20.531Z,12.70
2022-11-07T20:22:54.582Z,12.80
2022-11-07T20:25:21.390Z,12.90
2022-11-07T20:27:54.544Z,12.90
2022-11-07T20:30:27.549Z,12.90
2022-11-07T20:32:54.466Z,13.00
2022-11-07T20:35:21.187Z,13.00
2022-11-07T20:37:54.555Z,13.00
2022-11-07T20:40:29.311Z,13.10
2022-11-07T20:42:56.310Z,13.10
2022-11-07T20:45:29.537Z,13.10
2022-11-07T20:47:56.394Z,13.10
2022-11-07T20:50:29.572Z,13.10
2022-11-07T20:52:59.071Z,13.10
2022-11-07T20:55:34.570Z,13.10
2022-11-07T20:58:03.543Z,13.10
2022-11-07T21:00:36.656Z,13.10
2022-11-07T21:03:10.575Z,13.10
2022-11-07T21:05:43.712Z,13.20
2022-11-07T21:08:16.595Z,13.20
2022-11-07T21:10:57.586Z,13.20
2022-11-07T21:13:30.600Z,13.20
2022-11-07T21:16:03.613Z,13.20
2022-11-07T21:18:36.569Z,13.20
2022-11-07T21:21:20.078Z,13.20
2022-11-07T21:23:54.671Z,13.20
2022-11-07T21:26:27.860Z,13.20
2022-11-07T21:29:01.611Z,13.20
2022-11-07T21:31:31.333Z,13.20
2022-11-07T21:34:05.649Z,13.20
2022-11-07T21:36:32.590Z,13.20
2022-11-07T21:39:06.617Z,13.20
2022-11-07T21:41:36.602Z,13.20
2022-11-07T21:44:09.644Z,13.20
2022-11-07T21:46:36.420Z,13.20
2022-11-07T21:49:11.656Z,13.20
2022-11-07T21:51:44.650Z,13.20
2022-11-07T21:54:18.697Z,13.20
2022-11-07T21:56:45.512Z,13.20
2022-11-07T21:59:12.353Z,13.20
2022-11-07T22:01:46.802Z,13.20
2022-11-07T22:04:14.173Z,13.20
2022-11-07T22:06:50.730Z,13.20
2022-11-07T22:09:19.799Z,13.20
2022-11-07T22:11:47.479Z,13.20
2022-11-07T22:14:29.676Z,13.20
2022-11-07T22:16:56.880Z,13.20
2022-11-07T22:19:30.707Z,13.20
2022-11-07T22:21:57.449Z,13.20
2022-11-07T22:24:27.135Z,13.20
2022-11-07T22:27:01.692Z,13.20
2022-11-07T22:29:28.493Z,13.20
2022-11-07T22:32:01.718Z,13.20
2022-11-07T22:34:28.584Z,13.20
2022-11-07T22:36:55.341Z,13.20
2022-11-07T22:39:28.709Z,13.20
2022-11-07T22:42:01.740Z,13.20
2022-11-07T22:44:28.538Z,13.20
2022-11-07T22:47:01.742Z,13.20
2022-11-07T22:49:34.723Z,13.20
2022-11-07T22:52:02.207Z,13.20
2022-11-07T22:54:35.754Z,13.20
2022-11-07T22:57:02.617Z,13.20
2022-11-07T22:59:35.749Z,13.20
2022-11-07T23:02:02.587Z,13.20
2022-11-07T23:04:35.752Z,13.20
2022-11-07T23:07:02.590Z,13.20
2022-11-07T23:09:30.124Z,13.20
2022-11-07T23:12:09.801Z,13.10
2022-11-07T23:14:36.627Z,13.10
2022-11-07T23:17:09.799Z,13.00
2022-11-07T23:19:36.534Z,13.00
2022-11-07T23:22:10.857Z,13.00
2022-11-07T23:24:38.227Z,12.90
2022-11-07T23:27:11.795Z,12.80
2022-11-07T23:29:38.517Z,12.90
2022-11-07T23:32:05.422Z,12.80
2022-11-07T23:34:38.807Z,12.90
2022-11-07T23:37:20.830Z,12.90
2022-11-07T23:39:53.808Z,12.90
2022-11-07T23:42:22.004Z,12.90
2022-11-07T23:45:13.810Z,12.80
2022-11-07T23:47:59.113Z,12.80
2022-11-07T23:50:50.834Z,12.70
2022-11-07T23:53:35.961Z,12.60
2022-11-07T23:56:19.903Z,12.50
2022-11-07T23:59:05.563Z,12.50
